Aledo, Texas
Current Conditions -  °F | °C
As of 1:52 PM on Monday 22 Dec 2014 (Local Time) from KNFW Reporting Station
Scattered Clouds Scattered Clouds  
Wind Chill: 65°   Ceiling: Unl
Heat Index: 65°   Visibility: 10mi
Dew Point: 43°   Wind: 17mph
Humidity: 45%   Direction: 310°NW
Pressure: 29.62"   Gusts: NA
Location:  32.7°N, 97.6°W
Report Text: KNFW 221952Z 31015KT 10SM FEW080 SCT200 18/06 A2962 RMK AO2 SLP014 T01830061
Loading
Personal Weather Stations






























Interactive Weather Map New forecast layout! Learn more

10-Day Weather Forecast

Advertisements
Track Severe Weather on mobile